createdAt,value
2023-02-13T00:01:30.142Z,43.62
2023-02-13T00:04:00.926Z,43.65
2023-02-13T00:06:29.340Z,43.65
2023-02-13T00:08:57.743Z,43.91
2023-02-13T00:11:26.171Z,44.05
2023-02-13T00:13:54.623Z,43.98
2023-02-13T00:16:23.048Z,43.88
2023-02-13T00:18:51.499Z,44.10
2023-02-13T00:21:21.611Z,43.74
2023-02-13T00:23:50.019Z,44.10
2023-02-13T00:26:19.430Z,43.98
2023-02-13T00:28:47.942Z,43.95
2023-02-13T00:31:18.974Z,44.12
2023-02-13T00:33:47.688Z,44.20
2023-02-13T00:36:20.953Z,44.08
2023-02-13T00:38:49.740Z,44.36
2023-02-13T00:41:19.002Z,44.18
2023-02-13T00:43:48.975Z,44.25
2023-02-13T00:46:17.880Z,44.36
2023-02-13T00:48:46.725Z,44.31
2023-02-13T00:51:15.270Z,44.21
2023-02-13T00:53:45.164Z,44.15
2023-02-13T00:56:13.606Z,44.29
2023-02-13T00:58:42.039Z,44.16
2023-02-13T01:01:10.643Z,44.34
2023-02-13T01:03:39.330Z,44.71
2023-02-13T01:06:08.889Z,44.62
2023-02-13T01:08:40.903Z,44.32
2023-02-13T01:11:10.965Z,44.54
2023-02-13T01:13:39.407Z,44.93
2023-02-13T01:16:08.600Z,44.62
2023-02-13T01:18:37.145Z,44.75
2023-02-13T01:21:09.694Z,44.73
2023-02-13T01:23:39.990Z,44.71
2023-02-13T01:26:14.961Z,45.14
2023-02-13T01:28:43.370Z,44.95
2023-02-13T01:31:12.050Z,45.21
2023-02-13T01:33:40.578Z,45.06
2023-02-13T01:36:11.751Z,45.11
2023-02-13T01:38:40.983Z,45.23
2023-02-13T01:41:11.662Z,45.33
2023-02-13T01:43:53.986Z,45.27
2023-02-13T01:46:30.837Z,45.10
2023-02-13T01:49:05.240Z,45.02
2023-02-13T01:51:36.481Z,45.03
2023-02-13T01:54:10.302Z,45.32
2023-02-13T01:56:44.679Z,45.23
2023-02-13T01:59:18.316Z,44.99
2023-02-13T02:01:47.154Z,45.21
2023-02-13T02:04:22.588Z,44.56
2023-02-13T02:06:55.814Z,45.11
2023-02-13T02:09:28.459Z,44.56
2023-02-13T02:12:07.076Z,44.79
2023-02-13T02:14:36.278Z,44.45
2023-02-13T02:17:04.936Z,44.42
2023-02-13T02:19:40.499Z,44.62
2023-02-13T02:22:59.101Z,44.39
2023-02-13T02:26:27.378Z,44.58
2023-02-13T02:29:43.282Z,44.42
2023-02-13T02:32:30.160Z,44.13
2023-02-13T02:35:12.275Z,44.13
2023-02-13T02:38:03.410Z,44.44
2023-02-13T02:40:44.071Z,44.05
2023-02-13T02:43:31.896Z,43.95
2023-02-13T02:46:09.507Z,44.24
2023-02-13T02:49:07.135Z,43.92
2023-02-13T02:51:42.339Z,43.83
2023-02-13T02:54:36.445Z,43.90
2023-02-13T02:57:14.125Z,43.67
2023-02-13T03:00:17.063Z,44.02
2023-02-13T03:03:03.221Z,44.18
2023-02-13T03:05:54.059Z,43.93
2023-02-13T03:08:42.625Z,43.72
2023-02-13T03:11:29.062Z,43.99
2023-02-13T03:14:02.036Z,43.95
2023-02-13T03:16:56.977Z,43.96
2023-02-13T03:19:57.069Z,43.73
2023-02-13T03:22:42.728Z,43.52
2023-02-13T03:25:30.376Z,43.58
2023-02-13T03:28:24.257Z,43.71
2023-02-13T03:31:06.557Z,43.69
2023-02-13T03:33:59.145Z,43.51
2023-02-13T03:36:56.870Z,43.49
2023-02-13T03:39:44.540Z,43.26
2023-02-13T03:42:22.358Z,43.31
2023-02-13T03:45:11.237Z,43.28
2023-02-13T03:47:41.588Z,43.02
2023-02-13T03:50:12.342Z,43.13
2023-02-13T03:52:48.730Z,43.09
2023-02-13T03:55:40.151Z,42.86
2023-02-13T03:58:32.632Z,43.06
2023-02-13T04:01:07.833Z,42.68
2023-02-13T04:03:43.992Z,43.01
2023-02-13T04:06:17.050Z,42.71
2023-02-13T04:08:45.602Z,42.54
2023-02-13T04:11:21.252Z,42.66
2023-02-13T04:13:57.147Z,42.53
2023-02-13T04:16:33.189Z,42.64
2023-02-13T04:19:03.548Z,42.56
2023-02-13T04:21:34.814Z,42.37
2023-02-13T04:24:03.299Z,42.64
2023-02-13T04:26:37.497Z,42.38
2023-02-13T04:29:06.495Z,42.47
2023-02-13T04:31:35.666Z,42.36
2023-02-13T04:34:04.288Z,42.14
2023-02-13T04:36:32.775Z,42.07
2023-02-13T04:39:01.150Z,42.09
2023-02-13T04:41:29.562Z,42.08
2023-02-13T04:43:59.496Z,42.18
2023-02-13T04:46:28.047Z,42.05
2023-02-13T04:48:56.485Z,42.19
2023-02-13T04:51:24.862Z,41.98
2023-02-13T04:53:53.236Z,42.19
2023-02-13T04:56:21.745Z,41.86
2023-02-13T04:58:50.117Z,41.82
2023-02-13T05:01:20.046Z,41.80
2023-02-13T05:03:48.538Z,41.69
2023-02-13T05:06:16.940Z,41.92
2023-02-13T05:08:45.468Z,41.98
2023-02-13T05:11:13.861Z,42.01
2023-02-13T05:13:42.265Z,41.97
2023-02-13T05:16:10.741Z,41.98
2023-02-13T05:18:40.601Z,41.70
2023-02-13T05:21:26.147Z,41.83
2023-02-13T05:23:54.537Z,41.69
2023-02-13T05:26:22.897Z,41.55
2023-02-13T05:29:08.598Z,41.63
2023-02-13T05:31:37.047Z,41.58
2023-02-13T05:34:06.895Z,41.73
2023-02-13T05:36:35.354Z,41.55
2023-02-13T05:39:03.973Z,41.69
2023-02-13T05:41:32.359Z,41.57
2023-02-13T05:44:00.992Z,41.49
2023-02-13T05:46:29.415Z,41.63
2023-02-13T05:48:57.852Z,41.49
2023-02-13T05:51:27.804Z,41.36
2023-02-13T05:53:56.172Z,41.16
2023-02-13T05:56:24.845Z,41.23
2023-02-13T05:58:53.839Z,41.29
2023-02-13T06:01:22.806Z,41.38
2023-02-13T06:03:52.034Z,41.13
2023-02-13T06:06:21.388Z,41.07
2023-02-13T06:08:51.159Z,41.09
2023-02-13T06:11:19.808Z,40.88
2023-02-13T06:13:48.353Z,41.20
2023-02-13T06:16:16.862Z,40.97
2023-02-13T06:18:45.338Z,41.13
2023-02-13T06:21:13.766Z,40.92
2023-02-13T06:23:42.126Z,41.01
2023-02-13T06:26:12.202Z,41.22
2023-02-13T06:28:40.756Z,40.97
2023-02-13T06:31:09.391Z,41.24
2023-02-13T06:33:37.821Z,41.05
2023-02-13T06:36:07.014Z,40.96
2023-02-13T06:38:35.393Z,40.97
2023-02-13T06:41:04.683Z,41.29
2023-02-13T06:43:34.655Z,41.34
2023-02-13T06:46:06.950Z,41.34
2023-02-13T06:48:35.887Z,41.21
2023-02-13T06:51:04.362Z,41.38
2023-02-13T06:53:33.018Z,41.49
2023-02-13T06:56:04.976Z,41.35
2023-02-13T06:58:35.125Z,41.44
2023-02-13T07:01:03.757Z,41.78
2023-02-13T07:03:32.181Z,41.68
2023-02-13T07:06:00.823Z,41.85
2023-02-13T07:08:29.512Z,41.58
2023-02-13T07:10:58.356Z,41.65
2023-02-13T07:13:26.921Z,41.88
2023-02-13T07:15:58.122Z,41.97
2023-02-13T07:18:26.960Z,41.92
2023-02-13T07:20:55.530Z,41.93
2023-02-13T07:23:24.100Z,41.94
2023-02-13T07:25:52.580Z,42.20
2023-02-13T07:28:21.043Z,42.30
2023-02-13T07:30:49.483Z,42.25
2023-02-13T07:33:19.389Z,42.08
2023-02-13T07:35:49.130Z,42.10
2023-02-13T07:38:18.535Z,42.30
2023-02-13T07:40:47.100Z,42.07
2023-02-13T07:43:15.540Z,42.25
2023-02-13T07:45:44.114Z,42.23
2023-02-13T07:48:12.497Z,42.00
2023-02-13T07:50:42.296Z,42.36
2023-02-13T07:53:11.396Z,42.08
2023-02-13T07:55:39.834Z,42.11
2023-02-13T07:58:08.224Z,42.29
2023-02-13T08:00:36.825Z,42.27
2023-02-13T08:03:05.739Z,42.01
2023-02-13T08:05:35.489Z,42.20
2023-02-13T08:08:05.732Z,42.11
2023-02-13T08:10:51.514Z,42.09
2023-02-13T08:13:20.342Z,42.27
2023-02-13T08:15:48.798Z,42.27
2023-02-13T08:18:19.011Z,42.14
2023-02-13T08:20:48.647Z,42.27
2023-02-13T08:23:18.641Z,42.12
2023-02-13T08:25:47.869Z,42.21
2023-02-13T08:28:16.770Z,42.29
2023-02-13T08:30:45.348Z,42.10
2023-02-13T08:33:13.860Z,42.23
2023-02-13T08:35:42.387Z,42.18
2023-02-13T08:38:11.402Z,42.03
2023-02-13T08:40:41.604Z,41.95
2023-02-13T08:43:10.072Z,41.89
2023-02-13T08:45:39.110Z,42.08
2023-02-13T08:48:07.804Z,42.07
2023-02-13T08:50:37.148Z,42.30
2023-02-13T08:53:06.120Z,42.09
2023-02-13T08:55:34.617Z,41.95
2023-02-13T08:58:05.955Z,41.93
2023-02-13T09:00:34.553Z,41.68
2023-02-13T09:03:03.536Z,41.66
2023-02-13T09:05:33.020Z,41.81
2023-02-13T09:08:03.798Z,41.66
2023-02-13T09:10:33.424Z,41.58
2023-02-13T09:13:03.628Z,41.83
2023-02-13T09:15:32.826Z,41.82
2023-02-13T09:18:01.452Z,41.74
2023-02-13T09:20:30.178Z,41.52
2023-02-13T09:22:58.633Z,41.84
2023-02-13T09:25:27.436Z,41.66
2023-02-13T09:27:55.869Z,41.71
2023-02-13T09:30:25.860Z,41.63
2023-02-13T09:32:55.923Z,41.59
2023-02-13T09:35:25.085Z,41.68
2023-02-13T09:37:53.562Z,41.65
2023-02-13T09:40:29.584Z,41.74
2023-02-13T09:43:08.175Z,41.64
2023-02-13T09:45:39.320Z,41.56
2023-02-13T09:48:11.774Z,41.57
2023-02-13T09:50:40.627Z,41.52
2023-02-13T09:53:13.588Z,41.54
2023-02-13T09:55:53.044Z,41.39
2023-02-13T09:58:40.296Z,41.17
2023-02-13T10:01:25.560Z,41.48
2023-02-13T10:04:23.365Z,41.61
2023-02-13T10:07:07.792Z,41.51
2023-02-13T10:09:45.982Z,41.32
2023-02-13T10:12:48.812Z,41.42
2023-02-13T10:15:29.096Z,41.41
2023-02-13T10:18:05.077Z,41.53
2023-02-13T10:20:38.956Z,41.34
2023-02-13T10:23:21.708Z,41.57
2023-02-13T10:25:58.355Z,41.68
2023-02-13T10:28:38.666Z,41.74
2023-02-13T10:31:11.087Z,41.33
2023-02-13T10:33:48.952Z,41.27
2023-02-13T10:36:22.406Z,41.42
2023-02-13T10:39:01.563Z,41.51
2023-02-13T10:41:45.540Z,41.54
2023-02-13T10:44:46.333Z,41.63
2023-02-13T10:47:34.011Z,41.58
2023-02-13T10:50:20.998Z,41.47
2023-02-13T10:53:01.179Z,41.34
2023-02-13T10:56:17.644Z,41.18
2023-02-13T10:59:04.502Z,41.07
2023-02-13T11:01:40.944Z,41.06
2023-02-13T11:04:12.978Z,40.62
2023-02-13T11:06:52.199Z,40.39
2023-02-13T11:09:21.099Z,40.02
2023-02-13T11:11:49.559Z,39.62
2023-02-13T11:14:20.679Z,39.80
2023-02-13T11:17:02.334Z,39.62
2023-02-13T11:19:34.390Z,39.57
2023-02-13T11:22:09.872Z,39.48
2023-02-13T11:24:41.478Z,39.66
2023-02-13T11:27:14.111Z,39.04
2023-02-13T11:29:57.407Z,38.84
2023-02-13T11:32:27.805Z,37.87
2023-02-13T11:34:56.510Z,38.05
2023-02-13T11:37:29.596Z,37.93
2023-02-13T11:40:00.141Z,38.16
2023-02-13T11:42:33.388Z,38.33
2023-02-13T11:45:05.023Z,37.99
2023-02-13T11:47:38.675Z,37.98
2023-02-13T11:50:22.649Z,38.06
2023-02-13T11:52:59.687Z,37.92
2023-02-13T11:55:33.560Z,38.01
2023-02-13T11:58:04.769Z,37.82
2023-02-13T12:00:41.668Z,37.66
2023-02-13T12:03:29.083Z,37.96
2023-02-13T12:06:08.109Z,38.16
2023-02-13T12:08:40.614Z,38.27
2023-02-13T12:11:23.725Z,38.34
2023-02-13T12:13:53.886Z,37.84
2023-02-13T12:16:34.102Z,37.95
2023-02-13T12:19:09.014Z,37.75
2023-02-13T12:22:07.122Z,37.79
2023-02-13T12:24:57.209Z,37.49
2023-02-13T12:27:37.132Z,37.66
2023-02-13T12:30:48.219Z,37.43
2023-02-13T12:33:33.380Z,37.21
2023-02-13T12:36:11.396Z,37.39
2023-02-13T12:38:59.507Z,37.61
2023-02-13T12:41:40.111Z,37.41
2023-02-13T12:44:46.013Z,37.60
2023-02-13T12:47:21.416Z,37.85
2023-02-13T12:50:33.894Z,37.90
2023-02-13T12:53:39.536Z,37.98
2023-02-13T12:56:31.337Z,37.76
2023-02-13T12:59:11.242Z,37.60
2023-02-13T13:02:19.971Z,37.39
2023-02-13T13:05:03.154Z,37.46
2023-02-13T13:07:50.405Z,37.30
2023-02-13T13:10:39.414Z,37.14
2023-02-13T13:13:23.018Z,37.04
2023-02-13T13:16:03.475Z,37.25
2023-02-13T13:18:48.780Z,36.71
2023-02-13T13:21:36.768Z,35.89
2023-02-13T13:24:13.903Z,35.17
2023-02-13T13:26:47.150Z,34.70
2023-02-13T13:29:22.396Z,34.33
2023-02-13T13:31:57.498Z,34.15
2023-02-13T13:34:28.674Z,33.69
2023-02-13T13:37:05.956Z,33.48
2023-02-13T13:39:48.092Z,33.45
2023-02-13T13:42:26.021Z,33.37
2023-02-13T13:45:32.299Z,33.61
2023-02-13T13:48:52.216Z,33.96
2023-02-13T13:51:21.522Z,33.95
2023-02-13T13:54:23.393Z,34.11
2023-02-13T13:57:13.621Z,34.10
2023-02-13T14:00:30.048Z,34.04
2023-02-13T14:03:25.732Z,34.18
2023-02-13T14:06:09.733Z,34.34
2023-02-13T14:09:43.527Z,34.30
2023-02-13T14:12:39.780Z,34.26
2023-02-13T14:15:55.138Z,33.75
2023-02-13T14:18:25.420Z,33.97
2023-02-13T14:20:58.519Z,33.72
2023-02-13T14:23:53.265Z,34.06
2023-02-13T14:26:42.141Z,34.18
2023-02-13T14:29:31.256Z,34.11
2023-02-13T14:32:21.032Z,33.92
2023-02-13T14:35:00.296Z,34.22
2023-02-13T14:37:40.140Z,34.24
2023-02-13T14:40:49.017Z,34.67
2023-02-13T14:43:50.590Z,34.31
2023-02-13T14:46:34.094Z,34.34
2023-02-13T14:49:08.538Z,34.45
2023-02-13T14:51:41.248Z,34.45
2023-02-13T14:54:25.943Z,34.61
2023-02-13T14:57:06.742Z,34.75
2023-02-13T14:59:40.537Z,34.50
2023-02-13T15:02:21.254Z,34.80
2023-02-13T15:04:55.199Z,34.86
2023-02-13T15:07:28.975Z,34.80
2023-02-13T15:10:02.563Z,34.93
2023-02-13T15:12:37.003Z,34.90
2023-02-13T15:15:26.107Z,34.88
2023-02-13T15:18:00.040Z,34.80
2023-02-13T15:20:34.233Z,35.11
2023-02-13T15:23:03.517Z,35.03
2023-02-13T15:25:39.577Z,35.06
2023-02-13T15:28:20.838Z,35.22
2023-02-13T15:30:59.256Z,35.12
2023-02-13T15:33:30.792Z,35.15
2023-02-13T15:36:02.334Z,35.21
2023-02-13T15:38:33.825Z,35.31
2023-02-13T15:41:06.648Z,35.57
2023-02-13T15:43:41.140Z,35.57
2023-02-13T15:46:23.691Z,35.58
2023-02-13T15:48:53.780Z,35.66
2023-02-13T15:51:26.675Z,35.59
2023-02-13T15:53:58.034Z,35.80
2023-02-13T15:56:29.997Z,35.83
2023-02-13T15:59:02.590Z,35.85
2023-02-13T16:01:34.184Z,35.91
2023-02-13T16:04:08.545Z,36.11
2023-02-13T16:06:38.235Z,35.84
2023-02-13T16:09:07.574Z,36.09
2023-02-13T16:11:39.750Z,36.06
2023-02-13T16:14:19.519Z,36.36
2023-02-13T16:16:54.582Z,36.36
2023-02-13T16:19:38.071Z,36.31
2023-02-13T16:22:31.577Z,36.48
2023-02-13T16:25:18.568Z,36.56
2023-02-13T16:27:51.306Z,36.79
2023-02-13T16:30:37.283Z,36.94
2023-02-13T16:33:32.600Z,36.95
2023-02-13T16:36:20.608Z,37.10
2023-02-13T16:38:52.030Z,37.08
2023-02-13T16:41:35.088Z,37.09
2023-02-13T16:44:05.676Z,37.12
2023-02-13T16:46:38.860Z,37.22
2023-02-13T16:49:21.152Z,37.38
2023-02-13T16:52:01.442Z,37.28
2023-02-13T16:54:40.265Z,37.29
2023-02-13T16:57:30.335Z,37.32
2023-02-13T17:00:10.034Z,37.44
2023-02-13T17:02:42.386Z,37.55
2023-02-13T17:05:23.168Z,37.50
2023-02-13T17:07:54.702Z,37.64
2023-02-13T17:10:29.818Z,37.67
2023-02-13T17:13:02.936Z,37.67
2023-02-13T17:15:34.177Z,37.75
2023-02-13T17:18:06.202Z,37.68
2023-02-13T17:20:37.520Z,37.76
2023-02-13T17:23:09.526Z,37.82
2023-02-13T17:25:40.081Z,37.86
2023-02-13T17:28:15.721Z,37.91
2023-02-13T17:30:47.688Z,37.81
2023-02-13T17:33:23.899Z,38.03
2023-02-13T17:35:55.239Z,38.13
2023-02-13T17:38:27.417Z,38.06
2023-02-13T17:40:57.366Z,38.02
2023-02-13T17:43:30.688Z,38.26
2023-02-13T17:46:02.571Z,38.19
2023-02-13T17:48:34.636Z,38.05
2023-02-13T17:51:08.913Z,38.16
2023-02-13T17:53:38.876Z,38.34
2023-02-13T17:56:09.104Z,38.24
2023-02-13T17:58:39.028Z,38.29
2023-02-13T18:01:09.673Z,38.35
2023-02-13T18:03:43.375Z,38.27
2023-02-13T18:06:16.422Z,38.46
2023-02-13T18:08:46.598Z,38.43
2023-02-13T18:11:17.160Z,38.28
2023-02-13T18:13:49.023Z,38.37
2023-02-13T18:16:19.015Z,38.31
2023-02-13T18:18:50.812Z,38.31
2023-02-13T18:21:23.837Z,38.31
2023-02-13T18:23:54.757Z,38.48
2023-02-13T18:26:24.929Z,38.37
2023-02-13T18:28:54.301Z,38.29
2023-02-13T18:31:24.911Z,38.35
2023-02-13T18:33:59.279Z,38.37
2023-02-13T18:36:30.004Z,38.43
2023-02-13T18:39:03.783Z,38.38
2023-02-13T18:41:33.978Z,38.52
2023-02-13T18:44:04.648Z,38.64
2023-02-13T18:46:34.937Z,38.57
2023-02-13T18:49:07.254Z,38.43
2023-02-13T18:51:41.466Z,38.52
2023-02-13T18:54:12.430Z,38.56
2023-02-13T18:56:42.003Z,38.44
2023-02-13T18:59:13.167Z,38.48
2023-02-13T19:01:45.644Z,38.30
2023-02-13T19:04:18.295Z,38.53
2023-02-13T19:06:50.452Z,38.43
2023-02-13T19:09:22.221Z,38.57
2023-02-13T19:11:52.415Z,38.49
2023-02-13T19:14:25.185Z,38.60
2023-02-13T19:16:57.235Z,38.68
2023-02-13T19:19:28.364Z,38.51
2023-02-13T19:21:58.738Z,38.43
2023-02-13T19:24:29.092Z,38.58
2023-02-13T19:26:59.216Z,38.51
2023-02-13T19:29:33.678Z,38.70
2023-02-13T19:32:06.660Z,38.55
2023-02-13T19:34:38.817Z,38.71
2023-02-13T19:37:08.581Z,38.51
2023-02-13T19:39:38.337Z,38.52
2023-02-13T19:42:10.697Z,38.47
2023-02-13T19:44:41.249Z,38.52
2023-02-13T19:47:12.075Z,38.54
2023-02-13T19:49:44.381Z,38.51
2023-02-13T19:52:15.223Z,38.50
2023-02-13T19:54:46.161Z,38.41
2023-02-13T19:57:17.766Z,38.34
2023-02-13T19:59:48.351Z,38.33
2023-02-13T20:02:33.527Z,38.53
2023-02-13T20:05:09.446Z,38.49
2023-02-13T20:07:39.457Z,38.38
2023-02-13T20:10:11.363Z,38.39
2023-02-13T20:12:43.152Z,38.54
2023-02-13T20:15:17.178Z,38.50
2023-02-13T20:17:48.622Z,38.26
2023-02-13T20:20:20.855Z,38.39
2023-02-13T20:22:53.087Z,38.54
2023-02-13T20:25:25.283Z,38.30
2023-02-13T20:27:56.049Z,38.53
2023-02-13T20:30:27.024Z,38.61
2023-02-13T20:32:57.466Z,38.55
2023-02-13T20:35:30.552Z,38.45
2023-02-13T20:38:01.418Z,38.43
2023-02-13T20:40:32.556Z,38.48
2023-02-13T20:43:04.936Z,38.44
2023-02-13T20:45:35.237Z,38.52
2023-02-13T20:48:07.989Z,38.65
2023-02-13T20:50:40.338Z,38.34
2023-02-13T20:53:10.934Z,38.45
2023-02-13T20:55:41.695Z,38.73
2023-02-13T20:58:11.180Z,38.47
2023-02-13T21:00:41.562Z,38.58
2023-02-13T21:03:14.732Z,38.48
2023-02-13T21:05:50.935Z,38.35
2023-02-13T21:08:22.164Z,38.43
2023-02-13T21:10:53.069Z,38.51
2023-02-13T21:13:23.637Z,38.69
2023-02-13T21:15:58.998Z,38.72
2023-02-13T21:18:29.691Z,38.72
2023-02-13T21:21:04.061Z,38.52
2023-02-13T21:23:33.530Z,38.68
2023-02-13T21:26:07.700Z,38.44
2023-02-13T21:28:38.524Z,38.64
2023-02-13T21:31:09.430Z,38.75
2023-02-13T21:33:39.555Z,38.49
2023-02-13T21:36:13.626Z,38.52
2023-02-13T21:38:44.496Z,38.97
2023-02-13T21:41:16.524Z,38.79
2023-02-13T21:43:48.014Z,38.65
2023-02-13T21:46:19.290Z,38.96
2023-02-13T21:48:49.093Z,39.02
2023-02-13T21:51:21.865Z,39.22
2023-02-13T21:53:51.689Z,39.00
2023-02-13T21:56:22.769Z,39.05
2023-02-13T21:58:52.755Z,39.08
2023-02-13T22:01:26.851Z,39.37
2023-02-13T22:04:00.137Z,39.54
2023-02-13T22:06:33.149Z,39.83
2023-02-13T22:09:05.144Z,40.19
2023-02-13T22:11:34.470Z,39.96
2023-02-13T22:14:05.452Z,40.35
2023-02-13T22:16:36.412Z,40.04
2023-02-13T22:19:06.213Z,40.41
2023-02-13T22:21:37.333Z,40.21
2023-02-13T22:24:06.698Z,40.72
2023-02-13T22:26:37.283Z,40.43
2023-02-13T22:29:08.301Z,40.30
2023-02-13T22:31:37.430Z,40.42
2023-02-13T22:34:06.906Z,40.36
2023-02-13T22:36:39.625Z,40.37
2023-02-13T22:39:09.820Z,40.11
2023-02-13T22:41:38.815Z,40.25
2023-02-13T22:44:07.434Z,40.21
2023-02-13T22:46:36.518Z,40.61
2023-02-13T22:49:04.994Z,40.42
2023-02-13T22:51:37.214Z,40.23
2023-02-13T22:54:06.154Z,40.76
2023-02-13T22:56:35.659Z,40.73
2023-02-13T22:59:04.338Z,40.81
2023-02-13T23:01:33.051Z,40.57
2023-02-13T23:04:01.880Z,41.00
2023-02-13T23:06:30.671Z,40.75
2023-02-13T23:09:00.513Z,40.67
2023-02-13T23:11:47.346Z,40.94
2023-02-13T23:14:16.363Z,40.98
2023-02-13T23:17:03.196Z,41.01
2023-02-13T23:19:32.047Z,41.02
2023-02-13T23:22:01.289Z,40.56
2023-02-13T23:24:31.840Z,41.30
2023-02-13T23:27:00.916Z,41.23
2023-02-13T23:29:29.351Z,41.42
2023-02-13T23:31:58.008Z,41.46
2023-02-13T23:34:26.559Z,41.78
2023-02-13T23:36:54.995Z,41.80
2023-02-13T23:39:24.334Z,41.87
2023-02-13T23:41:54.118Z,41.99
2023-02-13T23:44:22.502Z,41.67
2023-02-13T23:46:50.912Z,41.89
2023-02-13T23:49:20.942Z,41.74
2023-02-13T23:51:49.834Z,41.71
2023-02-13T23:54:19.814Z,42.04
2023-02-13T23:56:49.997Z,41.83
2023-02-13T23:59:21.260Z,41.43
